Thunder radar more information blitzortung!


Radar de pluja more information rain snow radar


Visita la nostra xarxa de llocs de meteo:

Template documentation
and downloads

And another site



Extreme low temperature From: 23-02-2018 00:00 Until: 09:59 warning for: Extreme low temperature Level: Yellow info button

Pagina Historial Weather Underground text

Diari Resum Juny 10, 2016 Unitats:  Mètric    Imperial   Tant
« Previous Dia
SegĂźent Dia »
Diari Setmana Mensual Anual Personalitzada
  Maxima: Minima: Media:
Temperatura: -17.8 °C -7.7 °C -4.8 °C
Punt de rosada: -17.8 °C -12.2 °C -11.5 °C
Humitat: Humidity % 36 % 47 %
Wind Speed: 0 km/h 0 km/h 14.2 km/h
RĂ fegues de vent: 0 km/h - -
Vent:- - ESE
Pression baro: 0 hPa 34097 hPa -
Precipitacions: 0 mm    
Historical Graphs
 
 
Dades de taula per Juny 10, 2016
Temps Temperatura Punt de rosada Pression baro Vent Wind Speed RĂ fegues de vent Humitat Rainfall Rate (Hourly)
-17.8 °C -17.8 °C 0 hPa Calm     Humidity % 0 mm
00:00 -5.5 °C -11.7 °C 34256.2 hPa WSW 2.6 km/h 5.1 km/h 49 % 0 mm
00:05 -6.9 °C -11.8 °C 34198.6 hPa Calm     57 % 0 mm
00:15 -6.9 °C -11.8 °C 34198.6 hPa Calm     57 % 0 mm
00:25 -7 °C -11.8 °C 34198.6 hPa Calm     57 % 0 mm
00:35 -7.2 °C -12.1 °C 34198.6 hPa Calm     57 % 0 mm
00:45 -7.3 °C -11.9 °C 34198.6 hPa Calm     59 % 0 mm
00:55 -7.4 °C -11.8 °C 34198.6 hPa Calm   2.6 km/h 60 % 0 mm
01:05 -7.4 °C -11.8 °C 34164.7 hPa Calm     60 % 0 mm
01:25 -7.6 °C -11.9 °C 34198.6 hPa Calm     60 % 0 mm
01:35 -7.7 °C -11.9 °C 34198.6 hPa Calm     61 % 0 mm
01:45 -7.7 °C -11.9 °C 34198.6 hPa Calm     61 % 0 mm
01:55 -7.7 °C -11.9 °C 34198.6 hPa Calm     61 % 0 mm
02:05 -7.7 °C -11.8 °C 34198.6 hPa Calm     62 % 0 mm
02:15 -7.6 °C -11.7 °C 34198.6 hPa Calm     62 % 0 mm
02:25 -7.6 °C -11.7 °C 34198.6 hPa West 5.1 km/h 5.1 km/h 62 % 0 mm
02:35 -7.6 °C -11.7 °C 34198.6 hPa WSW 2.6 km/h 5.1 km/h 62 % 0 mm
02:45 -7.5 °C -11.6 °C 34198.6 hPa SW 2.6 km/h 5.1 km/h 62 % 0 mm
02:55 -7.5 °C -11.6 °C 34198.6 hPa SW 2.6 km/h 2.6 km/h 62 % 0 mm
03:05 -7.4 °C -11.6 °C 34198.6 hPa Calm   5.1 km/h 62 % 0 mm
03:15 -7.4 °C -11.5 °C 34222.3 hPa WSW 2.6 km/h 5.1 km/h 62 % 0 mm
03:25 -7.2 °C -11.6 °C 34222.3 hPa SW 5.1 km/h 7.7 km/h 60 % 0 mm
03:35 -7 °C -11.4 °C 34198.6 hPa SW 5.1 km/h 5.1 km/h 60 % 0 mm
03:45 -6.6 °C -11.2 °C 34198.6 hPa SW 2.6 km/h 5.1 km/h 59 % 0 mm
03:55 -6.1 °C -10.9 °C 34198.6 hPa ENE 7.7 km/h 7.7 km/h 58 % 0 mm
04:05 -5.9 °C -10.9 °C 34198.6 hPa NE 2.6 km/h 10.3 km/h 57 % 0 mm
04:15 -5.6 °C -10.8 °C 34198.6 hPa NE 2.6 km/h 10.3 km/h 55 % 0 mm
04:25 -5.2 °C -10.7 °C 34198.6 hPa ENE 7.7 km/h 7.7 km/h 54 % 0 mm
04:35 -5.2 °C -10.8 °C 34198.6 hPa ENE 5.1 km/h 12.9 km/h 53 % 0 mm
04:45 -4.9 °C -10.8 °C 34198.6 hPa East 7.7 km/h 15.6 km/h 51 % 0 mm
04:55 -4.6 °C -10.7 °C 34198.6 hPa East 12.9 km/h 12.9 km/h 50 % 0 mm
05:05 -4.5 °C -10.8 °C 34198.6 hPa East 12.9 km/h 12.9 km/h 49 % 0 mm
05:15 -4.1 °C -10.6 °C 34198.6 hPa East 7.7 km/h 18.2 km/h 48 % 0 mm
05:25 -3.9 °C -10.5 °C 34198.6 hPa East 7.7 km/h 15.6 km/h 48 % 0 mm
05:35 -4.1 °C -10.6 °C 34198.6 hPa ENE 7.7 km/h 12.9 km/h 48 % 0 mm
05:45 -3.7 °C -10.7 °C 34198.6 hPa East 2.6 km/h 15.6 km/h 46 % 0 mm
05:55 -3.7 °C -10.8 °C 34198.6 hPa ESE 12.9 km/h 20.8 km/h 45 % 0 mm
10:57 -3.7 °C -10.8 °C 34198.6 hPa NNE 20.9 km/h 20.9 km/h 45 % 0 mm
11:07 -3.7 °C -10.9 °C 34198.6 hPa SE 17.9 km/h 17.9 km/h 44 % 0 mm
11:12 -3.7 °C -10.9 °C 34198.6 hPa ESE 23.8 km/h 23.8 km/h 44 % 0 mm
11:17 -3.7 °C -11 °C 34164.7 hPa ESE 17.9 km/h 17.9 km/h 44 % 0 mm
11:22 -3.8 °C -11.1 °C 34164.7 hPa ESE 23.8 km/h 23.8 km/h 44 % 0 mm
11:27 -3.8 °C -11.1 °C 34164.7 hPa SW 15 km/h 15 km/h 44 % 0 mm
11:32 -3.8 °C -11.3 °C 34198.6 hPa South 20.9 km/h 20.9 km/h 43 % 0 mm
11:37 -3.7 °C -11.2 °C 34198.6 hPa SE 15 km/h 15 km/h 43 % 0 mm
11:47 -3.4 °C -10.9 °C 34198.6 hPa ESE 26.9 km/h 26.9 km/h 43 % 0 mm
11:52 -3.3 °C -10.8 °C 34198.6 hPa ESE 22 km/h 22 km/h 43 % 0 mm
11:57 -3.3 °C -11.1 °C 34198.6 hPa NNE 20.9 km/h 20.9 km/h 42 % 0 mm
12:02 -3.1 °C -10.8 °C 34164.7 hPa ESE 20.9 km/h 20.9 km/h 42 % 0 mm
12:07 -3.1 °C -10.8 °C 34164.7 hPa NW 20.9 km/h 20.9 km/h 42 % 0 mm
12:12 -3.3 °C -11 °C 34164.7 hPa ESE 23.8 km/h 23.8 km/h 42 % 0 mm
12:17 -3.1 °C -11.1 °C 34198.6 hPa ESE 26.9 km/h 26.9 km/h 41 % 0 mm
12:22 -3.2 °C -11.2 °C 34198.6 hPa East 26.9 km/h 26.9 km/h 41 % 0 mm
12:27 -3 °C -10.9 °C 34198.6 hPa South 15 km/h 15 km/h 41 % 0 mm
12:32 -3.3 °C -11.2 °C 34198.6 hPa East 22.5 km/h 22.5 km/h 41 % 0 mm
12:37 -3.2 °C -11.2 °C 34198.6 hPa ENE 20.9 km/h 20.9 km/h 41 % 0 mm
12:42 -3.2 °C -11.1 °C 34198.6 hPa NE 15 km/h 15 km/h 41 % 0 mm
12:47 -3.1 °C -11 °C 34198.6 hPa ESE 29.8 km/h 29.8 km/h 41 % 0 mm
12:57 -3 °C -10.9 °C 34198.6 hPa ESE 29.8 km/h 29.8 km/h 41 % 0 mm
13:02 -2.9 °C -10.9 °C 34198.6 hPa East 20.9 km/h 20.9 km/h 41 % 0 mm
13:07 -2.8 °C -11 °C 34198.6 hPa NE 32.8 km/h 32.8 km/h 40 % 0 mm
13:12 -2.5 °C -10.7 °C 34198.6 hPa ESE 15 km/h 15 km/h 40 % 0 mm
13:17 -2.7 °C -10.9 °C 34198.6 hPa ESE 17.9 km/h 17.9 km/h 40 % 0 mm
13:27 -2.7 °C -11.2 °C 34198.6 hPa East 23.8 km/h 23.8 km/h 39 % 0 mm
13:32 -2.8 °C -11.2 °C 34198.6 hPa SW 20.9 km/h 20.9 km/h 39 % 0 mm
13:42 -2.8 °C -11 °C 34198.6 hPa East 32.8 km/h 32.8 km/h 40 % 0 mm
13:47 -2.8 °C -11.2 °C 34164.7 hPa East 23.8 km/h 23.8 km/h 39 % 0 mm
13:52 -2.7 °C -11.2 °C 34164.7 hPa ESE 32.8 km/h 32.8 km/h 39 % 0 mm
14:02 -2.7 °C -11.2 °C 34164.7 hPa ESE 32.8 km/h 32.8 km/h 39 % 0 mm
14:07 -2.7 °C -11.2 °C 34164.7 hPa ESE 33.6 km/h 33.6 km/h 39 % 0 mm
14:12 -2.7 °C -11.2 °C 34164.7 hPa NE 32.8 km/h 32.8 km/h 39 % 0 mm
14:17 -2.7 °C -11.2 °C 34164.7 hPa ESE 25.4 km/h 25.4 km/h 39 % 0 mm
14:22 -2.7 °C -11.2 °C 34164.7 hPa East 29.8 km/h 29.8 km/h 39 % 0 mm
14:27 -2.4 °C -10.9 °C 34164.7 hPa East 29.8 km/h 29.8 km/h 39 % 0 mm
14:32 -2.4 °C -10.9 °C 34164.7 hPa ESE 32.8 km/h 32.8 km/h 39 % 0 mm
14:37 -2.4 °C -10.9 °C 34164.7 hPa ESE 32.8 km/h 32.8 km/h 39 % 0 mm
14:42 -2.4 °C -10.9 °C 34164.7 hPa ENE 26.9 km/h 26.9 km/h 39 % 0 mm
14:52 -2.4 °C -10.9 °C 34130.9 hPa ENE 26.4 km/h 26.4 km/h 39 % 0 mm
14:57 -2.4 °C -11.1 °C 34130.9 hPa ESE 38.8 km/h 38.8 km/h 38 % 0 mm
15:02 -2.3 °C -11 °C 34130.9 hPa East 47.6 km/h 47.6 km/h 38 % 0 mm
15:12 -2.6 °C -11.3 °C 34130.9 hPa ENE 29 km/h 29 km/h 38 % 0 mm
15:17 -2.3 °C -11 °C 34130.9 hPa SE 26.9 km/h 26.9 km/h 38 % 0 mm
15:37 -2.3 °C -11 °C 34130.9 hPa ENE 25.9 km/h 25.9 km/h 38 % 0 mm
15:47 -2.4 °C -11.1 °C 34130.9 hPa East 41.7 km/h 41.7 km/h 38 % 0 mm
15:52 -2.7 °C -11.3 °C 34130.9 hPa South 35.7 km/h 35.7 km/h 38 % 0 mm
15:57 -2.5 °C -11.2 °C 34130.9 hPa ESE 32.8 km/h 32.8 km/h 38 % 0 mm
16:07 -2.8 °C -11.2 °C 34130.9 hPa ESE 31.4 km/h 31.4 km/h 39 % 0 mm
16:12 -2.6 °C -11 °C 34130.9 hPa ESE 15 km/h 15 km/h 39 % 0 mm
16:17 -2.5 °C -11.2 °C 34130.9 hPa East 20.9 km/h 22 km/h 38 % 0 mm
16:32 -2.2 °C -10.9 °C 34130.9 hPa SW 29.8 km/h 29.8 km/h 38 % 0 mm
16:37 -2.2 °C -11.2 °C 34130.9 hPa ESE 20.9 km/h 20.9 km/h 37 % 0 mm
16:42 -2.4 °C -11.1 °C 34130.9 hPa East 38.8 km/h 38.8 km/h 38 % 0 mm
16:47 -2.4 °C -11.1 °C 34130.9 hPa ESE 35.7 km/h 35.7 km/h 38 % 0 mm
16:52 -2.4 °C -11.1 °C 34130.9 hPa NNW 23.8 km/h 23.8 km/h 38 % 0 mm
16:57 -2.2 °C -11.2 °C 34130.9 hPa ESE 15.3 km/h 15.6 km/h 37 % 0 mm
17:02 -2.2 °C -11.1 °C 34130.9 hPa SSE 20.9 km/h 20.9 km/h 37 % 0 mm
17:07 -2 °C -10.9 °C 34130.9 hPa SE 23.8 km/h 23.8 km/h 37 % 0 mm
17:12 -2.1 °C -11.1 °C 34130.9 hPa ESE 23.8 km/h 23.8 km/h 37 % 0 mm
17:17 -2.1 °C -11.3 °C 34097 hPa ESE 20.9 km/h 20.9 km/h 36 % 0 mm
17:22 -2.2 °C -11.2 °C 34097 hPa ESE 26.4 km/h 26.4 km/h 37 % 0 mm
17:27 -2.6 °C -11.4 °C 34097 hPa ESE 38.8 km/h 38.8 km/h 37 % 0 mm
17:32 -2.7 °C -11.6 °C 34097 hPa South 29.8 km/h 29.8 km/h 37 % 0 mm
17:38 -2.5 °C -11.4 °C 34097 hPa ESE 26.9 km/h 26.9 km/h 37 % 0 mm
17:43 -2.5 °C -11.4 °C 34097 hPa SE 17.9 km/h 17.9 km/h 37 % 0 mm
17:48 -2.4 °C -11.3 °C 34130.9 hPa ESE 18.3 km/h 18.3 km/h 37 % 0 mm
17:53 -2.5 °C -11.4 °C 34130.9 hPa ENE 20.9 km/h 20.9 km/h 37 % 0 mm
17:58 -2.4 °C -11.3 °C 34130.9 hPa ESE 11.9 km/h 11.9 km/h 37 % 0 mm
18:08 -2.7 °C -11.3 °C 34130.9 hPa ENE 26.9 km/h 26.9 km/h 38 % 0 mm
18:18 -3.1 °C -11.5 °C 34130.9 hPa East 23.8 km/h 23.8 km/h 39 % 0 mm
18:23 -3.3 °C -11.7 °C 34130.9 hPa ESE 15 km/h 15 km/h 39 % 0 mm
18:28 -3.3 °C -11.7 °C 34130.9 hPa ESE 26.9 km/h 26.9 km/h 39 % 0 mm
18:33 -3.2 °C -11.6 °C 34097 hPa ESE 11.9 km/h 11.9 km/h 39 % 0 mm
18:38 -3.2 °C -11.6 °C 34097 hPa ESE 17.9 km/h 17.9 km/h 39 % 0 mm
18:48 -3.2 °C -11.6 °C 34130.9 hPa SSE 17.9 km/h 17.9 km/h 39 % 0 mm
18:53 -3.4 °C -11.7 °C 34130.9 hPa East 6.3 km/h 7.6 km/h 39 % 0 mm
18:58 -3.4 °C -11.7 °C 34130.9 hPa ESE 23.8 km/h 23.8 km/h 39 % 0 mm
19:03 -3.6 °C -11.7 °C 34130.9 hPa SSE 26.9 km/h 26.9 km/h 40 % 0 mm
19:08 -3.4 °C -11.6 °C 34130.9 hPa South 15 km/h 15 km/h 40 % 0 mm
19:13 -3.4 °C -11.6 °C 34130.9 hPa ESE 23.8 km/h 23.8 km/h 40 % 0 mm
19:15 -6.3 °C -12 °C 34256.2 hPa ENE 2.6 km/h 10.3 km/h 52 % 0 mm
19:18 -3.5 °C -11.6 °C 34130.9 hPa South 20.9 km/h 20.9 km/h 40 % 0 mm
19:25 -6.4 °C -12.1 °C 34256.2 hPa North 2.6 km/h 10.3 km/h 52 % 0 mm
19:28 -3.4 °C -11.5 °C 34130.9 hPa East 19.6 km/h 19.6 km/h 40 % 0 mm
19:33 -3.6 °C -11.7 °C 34130.9 hPa SSE 23.8 km/h 23.8 km/h 40 % 0 mm
19:35 -6.6 °C -12.1 °C 34256.2 hPa North 2.6 km/h 10.3 km/h 53 % 0 mm
19:38 -3.6 °C -11.7 °C 34130.9 hPa South 11.9 km/h 11.9 km/h 40 % 0 mm
19:43 -3.6 °C -11.7 °C 34130.9 hPa SSE 12.7 km/h 12.7 km/h 40 % 0 mm
19:45 -6.6 °C -12.1 °C 34256.2 hPa North 2.6 km/h 10.3 km/h 53 % 0 mm
19:48 -3.6 °C -11.7 °C 34130.9 hPa ESE 15 km/h 15 km/h 40 % 0 mm
19:53 -3.7 °C -11.8 °C 34130.9 hPa East 20.9 km/h 20.9 km/h 40 % 0 mm
19:55 -6.6 °C -12.1 °C 34256.2 hPa North 2.6 km/h 10.3 km/h 53 % 0 mm
19:58 -3.7 °C -11.8 °C 34130.9 hPa ESE 20.9 km/h 20.9 km/h 40 % 0 mm
20:03 -3.7 °C -11.8 °C 34130.9 hPa ESE 15.6 km/h 16.1 km/h 40 % 0 mm
20:05 -6.7 °C -12.2 °C 34256.2 hPa North 2.6 km/h 10.3 km/h 53 % 0 mm
20:13 -3.7 °C -11.8 °C 34130.9 hPa East 22.5 km/h 22.5 km/h 40 % 0 mm
20:15 -6.7 °C -12 °C 34256.2 hPa North 2.6 km/h 10.3 km/h 54 % 0 mm
20:23 -3.7 °C -11.8 °C 34130.9 hPa East 27.2 km/h 27.2 km/h 40 % 0 mm
20:25 -6.7 °C -12.1 °C 34256.2 hPa North 2.6 km/h 10.3 km/h 54 % 0 mm
20:28 -4.6 °C -12.2 °C 34130.9 hPa East 16.1 km/h 19.2 km/h 42 % 0 mm
20:33 -4.6 °C -12.2 °C 34164.7 hPa ESE 20.9 km/h 20.9 km/h 42 % 0 mm
20:35 -6.8 °C -12.1 °C 34256.2 hPa North 2.6 km/h 10.3 km/h 54 % 0 mm
20:38 -4.8 °C -12.2 °C 34164.7 hPa ESE 27.2 km/h 27.2 km/h 43 % 0 mm
20:43 -4.8 °C -12.1 °C 34164.7 hPa ESE 29.8 km/h 29.8 km/h 44 % 0 mm
20:45 -6.8 °C -12.2 °C 34256.2 hPa North 2.6 km/h 10.3 km/h 54 % 0 mm
20:53 -5 °C -12 °C 34198.6 hPa ESE 20.9 km/h 20.9 km/h 45 % 0 mm
20:55 -6.7 °C -12.1 °C 34256.2 hPa North 2.6 km/h 10.3 km/h 54 % 0 mm
20:58 -5.1 °C -11.8 °C 34198.6 hPa East 11.9 km/h 11.9 km/h 46 % 0 mm
21:03 -5.1 °C -11.7 °C 34198.6 hPa ESE 23.8 km/h 23.8 km/h 47 % 0 mm
21:05 -6.7 °C -12.1 °C 34256.2 hPa North 2.6 km/h 10.3 km/h 54 % 0 mm
21:08 -5.2 °C -11.8 °C 34198.6 hPa ENE 15 km/h 15 km/h 47 % 0 mm
21:13 -5.2 °C -11.8 °C 34198.6 hPa ENE 9 km/h 12.2 km/h 47 % 0 mm
21:15 -6.7 °C -12.1 °C 34256.2 hPa North 2.6 km/h 10.3 km/h 54 % 0 mm
21:18 -5.3 °C -11.7 °C 34198.6 hPa East 15 km/h 15 km/h 48 % 0 mm
21:23 -5.3 °C -11.7 °C 34198.6 hPa East 12.7 km/h 12.7 km/h 48 % 0 mm
21:25 -6.7 °C -12 °C 34256.2 hPa North 2.6 km/h 10.3 km/h 54 % 0 mm
21:28 -5.3 °C -11.7 °C 34198.6 hPa East 11.9 km/h 11.9 km/h 48 % 0 mm
21:33 -5.3 °C -11.7 °C 34198.6 hPa East 6.8 km/h 11.6 km/h 48 % 0 mm
21:35 -6.7 °C -12 °C 34256.2 hPa Calm   10.3 km/h 54 % 0 mm
21:38 -5.3 °C -11.7 °C 34198.6 hPa East 6.8 km/h 11.6 km/h 48 % 0 mm
21:43 -5.3 °C -11.7 °C 34198.6 hPa East 6.8 km/h 11.6 km/h 48 % 0 mm
21:45 -6.8 °C -12.1 °C 34256.2 hPa NW 2.6 km/h 2.6 km/h 54 % 0 mm
21:48 -5.8 °C -11.6 °C 34198.6 hPa East 6.8 km/h 11.6 km/h 52 % 0 mm
21:53 -5.8 °C -11.6 °C 34198.6 hPa East 6.8 km/h 11.6 km/h 52 % 0 mm
21:55 -6.8 °C -12.2 °C 34256.2 hPa Calm     54 % 0 mm
22:03 -5.9 °C -11.8 °C 34198.6 hPa East 6.8 km/h 11.6 km/h 51 % 0 mm
22:05 -7.1 °C -12.1 °C 34222.3 hPa Calm     56 % 0 mm
22:08 -6 °C -11.8 °C 34198.6 hPa East 6.8 km/h 11.6 km/h 51 % 0 mm
22:13 -6.1 °C -11.9 °C 34198.6 hPa East 6.8 km/h 11.6 km/h 51 % 0 mm
22:15 -7.3 °C -11.8 °C 34222.3 hPa Calm     59 % 0 mm
22:18 -6.1 °C -11.9 °C 34222.3 hPa East 6.8 km/h 11.6 km/h 51 % 0 mm
22:23 -6.1 °C -11.9 °C 34222.3 hPa East 6.8 km/h 11.6 km/h 51 % 0 mm
22:25 -7.2 °C -11.8 °C 34222.3 hPa Calm     59 % 0 mm
22:28 -6.1 °C -11.9 °C 34222.3 hPa East 6.8 km/h 11.6 km/h 51 % 0 mm
22:35 -7.2 °C -11.8 °C 34222.3 hPa Calm     59 % 0 mm
22:38 -6.2 °C -11.8 °C 34256.2 hPa East 6.8 km/h 11.6 km/h 52 % 0 mm
22:43 -6.2 °C -11.8 °C 34256.2 hPa East 6.8 km/h 11.6 km/h 52 % 0 mm
22:45 -7.2 °C -11.7 °C 34256.2 hPa Calm     59 % 0 mm
22:48 -6.2 °C -11.9 °C 34256.2 hPa East 6.8 km/h 11.6 km/h 52 % 0 mm
22:53 -6.2 °C -11.9 °C 34256.2 hPa East 6.8 km/h 11.6 km/h 52 % 0 mm
22:55 -7.1 °C -11.8 °C 34256.2 hPa Calm     58 % 0 mm
22:58 -6.2 °C -12.1 °C 34256.2 hPa East 6.8 km/h 11.6 km/h 51 % 0 mm
23:03 -6.2 °C -11.9 °C 34256.2 hPa East 6.8 km/h 11.6 km/h 52 % 0 mm
23:05 -7.1 °C -11.9 °C 34256.2 hPa Calm     57 % 0 mm
23:08 -6.2 °C -11.9 °C 34256.2 hPa East 6.8 km/h 11.6 km/h 52 % 0 mm
23:13 -6.2 °C -11.9 °C 34256.2 hPa East 6.8 km/h 11.6 km/h 52 % 0 mm
23:15 -7.1 °C -11.9 °C 34222.3 hPa Calm     57 % 0 mm
23:18 -6.3 °C -11.9 °C 34256.2 hPa East 6.8 km/h 11.6 km/h 52 % 0 mm
23:23 -6.3 °C -11.9 °C 34256.2 hPa East 6.8 km/h 11.6 km/h 52 % 0 mm
23:25 -7.1 °C -11.9 °C 34222.3 hPa Calm     57 % 0 mm
23:28 -6.3 °C -11.9 °C 34256.2 hPa East 6.8 km/h 11.6 km/h 52 % 0 mm
23:33 -6.3 °C -11.9 °C 34256.2 hPa East 6.8 km/h 11.6 km/h 52 % 0 mm
23:35 -7.1 °C -11.9 °C 34222.3 hPa Calm     57 % 0 mm
23:38 -6.3 °C -11.9 °C 34256.2 hPa East 6.8 km/h 11.6 km/h 52 % 0 mm
23:43 -6.3 °C -11.9 °C 34256.2 hPa East 6.8 km/h 11.6 km/h 52 % 0 mm
23:45 -7.2 °C -11.8 °C 34222.3 hPa Calm     58 % 0 mm
23:48 -6.3 °C -11.9 °C 34256.2 hPa East 6.8 km/h 11.6 km/h 52 % 0 mm
23:53 -6.3 °C -11.9 °C 34256.2 hPa East 6.8 km/h 11.6 km/h 52 % 0 mm
23:55 -7.5 °C -11.6 °C 34222.3 hPa Calm     62 % 0 mm
23:58 -6.2 °C -11.9 °C 34256.2 hPa East 6.8 km/h 11.6 km/h 52 % 0 mm
Meteo Sesrovires
Elogis d' Weather Underground - 3.5 mb

Guio original per  Jim McMurry - jmcmurry@mwt.net Adaptat per a la plantilla per  Wim van der Kuil - Leuven-Template.eu

Trobareu la nostra informacio del temps tambe a:

Weather Underground

AWEKAS